Yachats, OR

2:43 PM PDT on October 20, 2014 (GMT -0700)
Stormwatcher's Retreat | Change Station
CLOSE
Current Station
Personal Weather Station
Location: Yachats, OR
Elevation: 26 ft
Nearby Weather Stations

Elev 26 ft 44.31 °N, 124.11 °W | Updated 3 minutes ago

Partly Cloudy
Partly Cloudy
60.1 °F
Feels Like 60.1 °F
N
12.0
Wind Variable Wind from SSW
Gusts 16.0 mph

Today
High -- | Low -- °F
--% Chance of Precip.
Yesterday
High -- | Low -- °F
Precip. -- in
7:37 AM 6:23 PM
Waning Crescent, 9% visible
Pressure 29.83 in
Visibility 7.0 miles
Clouds Scattered Clouds 2800 ft
Scattered Clouds 4100 ft
Scattered Clouds 5000 ft
Dew Point 54 °F
Humidity 80%
Rainfall 0.00 in
Snow Depth Not available.
UV 0.0 out of 12
Pollen .30 out of 12
Air Quality Not available.
Flu Activity Not available.
METAR KONP 202135Z AUTO 20014G25KT 7SM SCT028 SCT041 SCT050 16/12 A2983 RMK AO2

More Conditions Fewer Conditions

Pressure 29.83 in
Visibility 7.0 miles
Clouds Scattered Clouds 2800 ft
Scattered Clouds 4100 ft
Scattered Clouds 5000 ft
Dew Point 54 °F
Humidity 80%
Rainfall 0.00 in
Snow Depth Not available.
UV 0.0 out of 12
Pollen .30 out of 12
Air Quality Not available.
Flu Activity Not available.
METAR KONP 202135Z AUTO 20014G25KT 7SM SCT028 SCT041 SCT050 16/12 A2983 RMK AO2

More Conditions Fewer Conditions

10-Day Weather Forecast

Almanac

Astronomy

Oct. 20, 2014 Rise Set
Actual Time 7:37 AM PDT 6:23 PM PDT
Civil Twilight 7:08 AM PDT 6:53 PM PDT
Nautical Twilight 6:34 AM PDT 7:26 PM PDT
Astronomical Twilight 6:00 AM PDT 8:00 PM PDT
Moon 4:24 AM PDT 4:55 PM PDT
Length of Visible Light 11h 44m
Length of Day
10h 45m
Tomorrow will be 2m 55s shorter.
Waning Crescent, 9% of the Moon is Illuminated
Today
Waning Crescent
Oct 23
New
Oct 30
First Quarter
Nov 6
Full
Nov 14
Last Quarter

Today's Extremes

State Highs State Lows

Community

WunderPhotos

Upload Photos

1,763,527 photos uploaded!

WunderBlogs® & News

Nearby

Snow Depth

Station Depth Elevation
Holland Meadows 0 in 4900 ft
Seine Creek 0 in 2000 ft
Little Meadows 0 in 4000 ft
Jump Off Joe 0 in 3500 ft
Daly Lake 0 in 3600 ft

Earthquake Activity

City Distance Mag. Time & Date
No recent earthquake activity has been reported nearby.
Minimum magnitude displayed is 2.5.

Coastal Water Temperatures

Place Temperature
South Beach, OR 60.1 °F
Garibaldi, Tillamook Bay, OR 60.1 °F
Charleston, OR 57.9 °F

Nearby Weather Stations